Tiempo atmosférico en la estación meteorológica de Buitrago del Lozoya, Madrid (1026 m.)

Fecha
DESCASC
Temp. máxima en grados centígrados (hora)
DESCASC
Temp. mínima en grados centígrados (hora)
DESCASC
Temp. media en grados centígrados
DESCASC
Racha de viento máxima en m/sg (hora)
DESCASC
Velocidad máxima media en intervalos de 10 minutos(hora)
DESCASC
Precipitaciones diarias en mm
DESCASC
Precipitaciones de 00:00 a 06:00 en mm
DESCASC
Precipitaciones de 06:00 a 12:00 en mm
DESCASC
Precipitaciones de 12:00 a 18:00 en mm
DESCASC
Precipitaciones de 18:00 a 24:00 en mm
DESCASC
22-10-2017 17.3 (16:00) 2 (08:50) 9.6 5.56 (00:10) 2.78 (17:00) 0 0 0 0 0
21-10-2017 18.4 (13:50) 9.1 (23:50) 13.8 9.72 (17:30) 5.56 (18:40) 0 0 0 0 0
20-10-2017 19.4 (16:00) 9.4 (08:40) 14.4 6.67 (06:50) 3.61 (06:20) 0 0 0 0 0
19-10-2017 13.5 (14:20) 5.1 (00:00) 9.3 11.11 (15:40) 5.28 (14:30) 1.3 1.3 0 0 0
18-10-2017 11.7 (00:10) 6.6 (00:00) 9.1 5.56 (17:10) 2.22 (15:20) 36.1 0.3 11.8 16.8 7.2
17-10-2017 14.4 (14:20) 5.1 (00:00) 9.7 5.83 (14:20) 3.33 (14:20) 3.2 0 0 2.1 1.1
16-10-2017 23.1 (16:10) 5.4 (00:00) 14.3 6.67 (17:10) 3.33 (14:20) 0 0 0 0 0
15-10-2017 -- (--) -- (--) -- 8.33 (15:50) 3.89 (16:00) 0 0 0 0 0
14-10-2017 25.6 (16:30) 5.1 (00:00) 15.4 6.67 (15:00) 3.61 (17:10) 0 0 0 0 0
13-10-2017 25.5 (15:20) 6.3 (00:00) 15.9 7.22 (15:30) 3.61 (17:00) 0 0 0 0 0
12-10-2017 25.9 (15:30) 4.2 (00:00) 15 6.67 (18:00) 3.61 (17:20) 0 0 0 0 0
11-10-2017 25.4 (15:40) 3 (00:00) 14.2 10.83 (16:30) 4.72 (16:30) 0 0 0 0 0
10-10-2017 25.6 (16:10) 2.1 (00:00) 13.9 7.22 (16:30) 3.89 (15:30) 0 0 0 0 0
09-10-2017 25.4 (15:50) 3.4 (00:00) 14.4 6.94 (17:00) 3.89 (16:40) 0 0 0 0 0
08-10-2017 26.6 (16:20) 1.7 (00:00) 14.2 7.22 (17:50) 3.89 (17:20) 0 0 0 0 0
07-10-2017 24.7 (16:30) 2.8 (00:00) 13.8 6.39 (17:00) 3.61 (17:30) 0 0 0 0 0
06-10-2017 25.4 (13:40) 6.7 (00:00) 16 10.56 (14:10) 4.72 (13:20) 0 0 0 0 0
05-10-2017 28.3 (15:50) 7.4 (00:00) 17.8 8.61 (15:00) 4.17 (14:30) 0 0 0 0 0
04-10-2017 26.1 (16:20) 7.5 (00:00) 16.8 5.83 (15:40) 2.78 (16:40) 0 0 0 0 0
03-10-2017 28.2 (15:50) 9.2 (00:00) 18.7 9.72 (14:30) 4.17 (16:10) 0 0 0 0 0
02-10-2017 26.6 (16:10) 10.7 (00:00) 18.7 9.17 (09:40) 4.44 (09:30) 0 0 0 0 0
01-10-2017 22.5 (15:50) 12.4 (00:00) 17.4 9.17 (16:00) 4.72 (16:30) 0 0 0 0 0
30-09-2017 25.4 (16:10) 10.3 (00:00) 17.8 8.61 (17:00) 4.72 (17:30) 0 0 0 0 0
29-09-2017 26.6 (17:00) 6.7 (00:00) 16.7 6.11 (16:00) 3.06 (14:30) 0 0 0 0 0
28-09-2017 25.4 (16:00) 5.7 (00:00) 15.5 6.39 (15:40) 3.06 (18:20) 0 0 0 0 0
27-09-2017 23.9 (16:40) 4.7 (00:00) 14.3 6.39 (14:50) 3.33 (16:20) 0 0 0 0 0
26-09-2017 24 (17:00) 3.3 (00:00) 13.6 5.28 (16:00) 2.5 (16:10) 0 0 0 0 0
25-09-2017 22.2 (14:20) 11.2 (00:00) 16.7 10.83 (15:40) 5.83 (15:20) 0 0 0 0 0
24-09-2017 27.1 (16:00) 7.1 (00:00) 17.1 9.72 (14:30) 3.33 (15:30) 0 0 0 0 0
23-09-2017 24.6 (16:20) 7 (00:00) 15.8 6.39 (16:20) 3.06 (16:20) 0 0 0 0 0

Gráficas

Temp. máximas Temp. mínimas Temp. medias Precipitaciones Rachas de viento máximas Velocidades máximas media en intervalos de 10 minutos

Datos horarios

Fecha y hora oficial Temperatura (ºC) Velocidad del viento (km/h) Dirección del viento Racha (km/h) Dirección de racha Precipitación (mm) Presión (hPa) Tendencia (hPa) Humedad (%)
2017-10-22 23:00:00 5.1 2 Noroeste 5 Noroeste 0 -- -- 76
2017-10-22 22:00:00 6.6 0 Calma 10 Oeste 0 -- -- 69
2017-10-22 21:00:00 8.1 0 Calma 4 Noroeste 0 -- -- 62
2017-10-22 20:00:00 11.2 2 Norte 19 Norte 0 -- -- 49
2017-10-22 19:00:00 13.3 10 Norte 20 Norte 0 -- -- 44
2017-10-22 18:00:00 15.4 6 Nordeste 19 Nordeste 0 -- -- 40
2017-10-22 17:00:00 15.5 10 Nordeste 20 Nordeste 0 -- -- 39
2017-10-22 16:00:00 16.6 4 Nordeste 12 Este 0 -- -- 36
2017-10-22 15:00:00 16.2 8 Norte 16 Nordeste 0 -- -- 36
2017-10-22 14:00:00 15.6 6 Nordeste 15 Nordeste 0 -- -- 36
2017-10-22 13:00:00 14.5 3 Noroeste 10 Oeste 0 -- -- 40
2017-10-22 12:00:00 11.9 5 Noroeste 10 Oeste 0 -- -- 51
2017-10-22 11:00:00 7.8 4 Oeste 12 Oeste 0 -- -- 69
2017-10-22 10:00:00 4.3 5 Oeste 9 Noroeste 0 -- -- 82
2017-10-22 09:00:00 2.3 6 Oeste 13 Oeste 0 -- -- 85
2017-10-22 08:00:00 2.3 4 Noroeste 15 Oeste 0 -- -- 85
2017-10-22 07:00:00 2.9 5 Oeste 16 Oeste 0 -- -- 84
2017-10-22 06:00:00 3.4 7 Oeste 13 Oeste 0 -- -- 83
2017-10-22 05:00:00 3.6 0 Calma 9 Noroeste 0 -- -- 79
2017-10-22 04:00:00 4.3 2 Noroeste 9 Noroeste 0 -- -- 75
2017-10-22 03:00:00 5.9 5 Noroeste 9 Noroeste 0 -- -- 70
2017-10-22 02:00:00 6.5 5 Oeste 12 Noroeste 0 -- -- 65
2017-10-22 01:00:00 8.9 6 Noroeste 20 Oeste 0 -- -- 58
2017-10-22 00:00:00 9.4 10 Noroeste 19 Oeste 0 -- -- 58
2017-10-21 23:00:00 9.6 8 Noroeste 18 Noroeste 0 -- -- 54
2017-10-21 22:00:00 10.7 10 Noroeste 22 Noroeste 0 -- -- 50
2017-10-21 21:00:00 11.4 12 Noroeste 31 Oeste 0 -- -- 51
2017-10-21 20:00:00 12.2 13 Noroeste 33 Noroeste 0 -- -- 50
2017-10-21 19:00:00 12.9 16 Noroeste 33 Noroeste 0 -- -- 55
2017-10-21 18:00:00 14 14 Noroeste 35 Oeste 0 -- -- 59
2017-10-21 17:00:00 16 15 Noroeste 29 Noroeste 0 -- -- 52
2017-10-21 16:00:00 17.2 16 Noroeste 29 Oeste 0 -- -- 53
2017-10-21 15:00:00 17.6 14 Noroeste 25 Noroeste 0 -- -- 54
2017-10-21 14:00:00 18 6 Noroeste 20 Norte 0 -- -- 55
2017-10-21 13:00:00 16.9 4 Noroeste 15 Norte 0 -- -- 59
2017-10-21 12:00:00 15.4 0 Calma 6 Nordeste 0 -- -- 71
2017-10-21 11:00:00 14.9 0 Calma 5 Norte 0 -- -- 79
2017-10-21 10:00:00 13.2 0 Calma 8 Norte 0 -- -- 87
2017-10-21 09:00:00 11.9 3 Norte 5 Norte 0 -- -- 90
2017-10-21 08:00:00 12.1 3 Este 6 Este 0 -- -- 90
2017-10-21 07:00:00 12.4 2 Noroeste 6 Noroeste 0 -- -- 89
2017-10-21 06:00:00 12.5 0 Calma 6 Oeste 0 -- -- 89
2017-10-21 05:00:00 12.4 0 Calma 7 Nordeste 0 -- -- 88
2017-10-21 04:00:00 12.7 0 Calma 5 Este 0 -- -- 87
2017-10-21 03:00:00 12.7 0 Calma 4 Norte 0 -- -- 85
2017-10-21 02:00:00 12.8 2 Norte 5 Noroeste 0 -- -- 83
2017-10-21 01:00:00 13.3 3 Nordeste 7 Este 0 -- -- 81
2017-10-21 00:00:00 13.1 0 Calma 5 Este 0 -- -- 82
2017-10-20 23:00:00 13.3 2 Nordeste 6 Noroeste 0 -- -- 81
2017-10-20 22:00:00 13.7 4 Nordeste 9 Nordeste 0 -- -- 79
2017-10-20 21:00:00 14.5 3 Nordeste 10 Norte 0 -- -- 75
2017-10-20 20:00:00 14.9 3 Nordeste 14 Nordeste 0 -- -- 73
2017-10-20 19:00:00 16.1 6 Nordeste 15 Nordeste 0 -- -- 66
2017-10-20 18:00:00 17.1 8 Nordeste 23 Nordeste 0 -- -- 60
2017-10-20 17:00:00 17.9 9 Nordeste 18 Este 0 -- -- 54
2017-10-20 16:00:00 19.4 6 Norte 17 Nordeste 0 -- -- 48
2017-10-20 15:00:00 18 10 Nordeste 20 Nordeste 0 -- -- 49
2017-10-20 14:00:00 17.8 9 Nordeste 18 Nordeste 0 -- -- 48
2017-10-20 13:00:00 18.2 4 Nordeste 10 Nordeste 0 -- -- 43
2017-10-20 12:00:00 16.9 5 Nordeste 12 Norte 0 -- -- 51
2017-10-20 11:00:00 15.5 2 Norte 8 Nordeste 0 -- -- 63
2017-10-20 10:00:00 11.3 2 Noroeste 6 Norte 0 -- -- 86
2017-10-20 09:00:00 9.4 0 Calma 7 Norte 0 -- -- 86
2017-10-20 08:00:00 10.1 0 Calma 18 Noroeste 0 -- -- 81
2017-10-20 07:00:00 11.8 11 Noroeste 24 Noroeste 0 -- -- 80
2017-10-20 06:00:00 11.7 10 Noroeste 18 Noroeste 0 -- -- 78
2017-10-20 05:00:00 11.5 4 Norte 9 Norte 0 -- -- 78
2017-10-20 04:00:00 11.7 4 Oeste 17 Noroeste 0 -- -- 75
2017-10-20 03:00:00 11.1 6 Noroeste 16 Norte 0 -- -- 76
2017-10-20 02:00:00 10.9 3 Norte 20 Oeste 0 -- -- 75
2017-10-20 01:00:00 11 8 Noroeste 18 Noroeste 0 -- -- 73
2017-10-20 00:00:00 10.6 2 Noroeste 13 Oeste 0 -- -- 67
2017-10-19 23:00:00 10.9 7 Noroeste 19 Noroeste 0 -- -- 61
2017-10-19 22:00:00 11.3 10 Noroeste 22 Noroeste 0 -- -- 53
2017-10-19 21:00:00 11.2 7 Noroeste 25 Oeste 0 -- -- 50
2017-10-19 20:00:00 11.1 9 Noroeste 19 Oeste 0 -- -- 52
2017-10-19 19:00:00 12.1 10 Oeste 27 Oeste 0 -- -- 49
2017-10-19 18:00:00 12.1 6 Noroeste 31 Noroeste 0 -- -- 48
2017-10-19 17:00:00 12.8 15 Noroeste 28 Noroeste 0 -- -- 44
2017-10-19 16:00:00 13 17 Noroeste 40 Noroeste 0 -- -- 45
2017-10-19 15:00:00 12.9 17 Noroeste 32 Noroeste 0 -- -- 45
2017-10-19 14:00:00 13.1 16 Noroeste 29 Noroeste 0 -- -- 44
2017-10-19 13:00:00 12.5 12 Noroeste 28 Noroeste 0 -- -- 48
2017-10-19 12:00:00 11.2 17 Noroeste -- -- -- -- -- 50
2017-10-19 11:00:00 10.4 6 Noroeste 15 Oeste 0 -- -- 57
2017-10-19 10:00:00 8.8 8 Noroeste 16 Noroeste 0 -- -- 68
2017-10-19 09:00:00 6.9 4 Noroeste 15 Norte 0 -- -- 81
2017-10-19 08:00:00 6.8 5 Noroeste 13 Noroeste 0 -- -- 82
2017-10-19 07:00:00 6.2 0 Calma 10 Noroeste 0 -- -- 88
2017-10-19 06:00:00 5.9 0 Calma 7 Noroeste 0 -- -- 90
2017-10-19 05:00:00 5.8 0 Calma 5 Nordeste 0 -- -- 90
2017-10-19 04:00:00 5.1 3 Noroeste 9 Oeste 0.1 -- -- 89
2017-10-19 03:00:00 5.6 0 Calma 3 Noroeste 0 -- -- 88
2017-10-19 02:00:00 5.6 0 Calma 10 Nordeste 0 -- -- 87
2017-10-19 01:00:00 6.2 4 Nordeste 9 Nordeste 1.2 -- -- 89
2017-10-19 00:00:00 6.6 0 Calma 6 Nordeste 1.6 -- -- 89
2017-10-18 23:00:00 6.7 0 Calma 10 Este 3 -- -- 89
2017-10-18 22:00:00 6.9 2 Norte 9 Norte 1.6 -- -- 87
2017-10-18 21:00:00 7 2 Nordeste 7 Este 0.1 -- -- 86
2017-10-18 20:00:00 -- 0 Calma 5 Nordeste 0.2 -- -- --
2017-10-18 19:00:00 7.5 0 Calma 7 Noroeste 0.7 -- -- 83
2017-10-18 18:00:00 7.8 0 Calma 20 Oeste 3.2 -- -- 80
2017-10-18 17:00:00 8.2 3 Norte 14 Norte 4.5 -- -- 86
2017-10-18 16:00:00 8.7 5 Noroeste 18 Norte 6.4 -- -- 85
2017-10-18 15:00:00 10.7 5 Nordeste 15 Este 0 -- -- 88
2017-10-18 14:00:00 9.7 6 Nordeste 17 Este 1.7 -- -- 90
2017-10-18 13:00:00 9.9 5 Nordeste 14 Este 1 -- -- 90
2017-10-18 12:00:00 9.9 5 Norte 11 Norte 0.5 -- -- 90
2017-10-18 11:00:00 9.8 5 Nordeste 12 Nordeste 0.6 -- -- 90
2017-10-18 10:00:00 9.7 4 Este 12 Oeste 2.2 -- -- 87
2017-10-18 09:00:00 10.3 3 Oeste 6 Noroeste 5.8 -- -- 89
2017-10-18 08:00:00 10.5 0 Calma 10 Nordeste 2.7 -- -- 89
2017-10-18 07:00:00 11 6 Nordeste 13 Este 0 -- -- 89
2017-10-18 06:00:00 11.2 3 Norte 11 Este 0 -- -- 89
2017-10-18 05:00:00 11.3 3 Norte 12 Nordeste 0.1 -- -- 91
2017-10-18 04:00:00 11.4 3 Nordeste 8 Este 0 -- -- 92
2017-10-18 03:00:00 11.5 3 Este 13 Nordeste 0.1 -- -- 92
2017-10-18 02:00:00 11.3 4 Nordeste 17 Nordeste 0.1 -- -- 93
2017-10-18 01:00:00 11.6 4 Nordeste 11 Este 0 -- -- 91
2017-10-18 00:00:00 11.6 0 Calma 8 Este 0 -- -- 91
2017-10-17 23:00:00 11.8 3 Nordeste 15 Nordeste 0.3 -- -- 90
2017-10-17 22:00:00 11.6 0 Calma 13 Este 0 -- -- 93
2017-10-17 21:00:00 11.8 6 Norte 14 Nordeste 0.5 -- -- 91
2017-10-17 20:00:00 12.1 3 Nordeste 10 Este 0 -- -- 90
2017-10-17 19:00:00 12.2 2 Nordeste 10 Nordeste 0.3 -- -- 89
2017-10-17 18:00:00 12.5 4 Nordeste 11 Nordeste 0.1 -- -- 90
2017-10-17 17:00:00 12.2 4 Este 12 Este 1.9 -- -- 91
2017-10-17 16:00:00 13.5 9 Nordeste 17 Nordeste 0.1 -- -- 76
2017-10-17 15:00:00 13.3 8 Nordeste 21 Norte 0 -- -- 72
2017-10-17 14:00:00 13.7 10 Nordeste 20 Norte 0 -- -- 70
2017-10-17 13:00:00 13.4 6 Nordeste 18 Nordeste 0 -- -- 74
2017-10-17 12:00:00 12.8 5 Nordeste 14 Nordeste 0 -- -- 77
2017-10-17 11:00:00 10.9 0 Calma 4 Este 0 -- -- 79
2017-10-17 10:00:00 9.1 0 Calma 5 Noroeste 0 -- -- 83
2017-10-17 09:00:00 7 0 Calma 5 Noroeste 0 -- -- 88
2017-10-17 08:00:00 6 0 Calma 5 Noroeste 0 -- -- 88
2017-10-17 07:00:00 6 0 Calma 7 Oeste 0 -- -- 88
2017-10-17 06:00:00 5.3 0 Calma 5 Noroeste 0 -- -- 88
2017-10-17 05:00:00 5.3 0 Calma 6 Noroeste 0 -- -- 86
2017-10-17 04:00:00 5.9 3 Noroeste 8 Oeste 0 -- -- 84
2017-10-17 03:00:00 6.7 0 Calma 7 Oeste 0 -- -- 81
2017-10-17 02:00:00 6.9 0 Calma 5 Noroeste 0 -- -- 78
2017-10-17 01:00:00 7.5 3 Noroeste 5 Noroeste 0 -- -- 75
2017-10-17 00:00:00 8.7 2 Norte 6 Noroeste 0 -- -- 69
2017-10-16 23:00:00 10.8 4 Oeste 8 Oeste 0 -- -- 64
2017-10-16 22:00:00 11.5 0 Calma 6 Noroeste 0 -- -- 59
2017-10-16 21:00:00 14.3 3 Noroeste 7 Noroeste 0 -- -- 52
2017-10-16 20:00:00 17.7 3 Nordeste 10 Nordeste 0 -- -- 45
2017-10-16 19:00:00 20.8 4 Nordeste 17 Nordeste 0 -- -- 42
2017-10-16 18:00:00 21.5 9 Nordeste 24 Este 0 -- -- 43
2017-10-16 17:00:00 22.1 12 Nordeste 23 Nordeste 0 -- -- 43
2017-10-16 16:00:00 22.7 10 Nordeste 22 Este 0 -- -- 44
2017-10-16 15:00:00 21.6 8 Nordeste 21 Este 0 -- -- 47
2017-10-16 14:00:00 20.8 7 Nordeste 14 Este 0 -- -- 50
2017-10-16 13:00:00 20.3 6 Nordeste 13 Nordeste 0 -- -- 53
2017-10-16 12:00:00 18.6 2 Norte 9 Norte 0 -- -- 57
2017-10-16 11:00:00 15.9 0 Calma 7 Nordeste 0 -- -- 62
2017-10-16 10:00:00 10.6 4 Oeste 7 Oeste 0 -- -- 78
2017-10-16 09:00:00 -- -- -- -- -- -- -- -- --
2017-10-16 08:00:00 5.5 0 Calma 5 Noroeste 0 -- -- 87
2017-10-16 07:00:00 6 2 Noroeste 5 Oeste 0 -- -- 84
2017-10-16 06:00:00 7 3 Noroeste 6 Oeste 0 -- -- 82
2017-10-16 05:00:00 8.2 6 Oeste -- -- -- -- -- 80
2017-10-16 04:00:00 8.1 5 Noroeste 8 Noroeste 0 -- -- 78
2017-10-16 03:00:00 8 2 Norte 9 Noroeste 0 -- -- 76
2017-10-16 02:00:00 8.8 2 Noroeste 5 Noroeste 0 -- -- 74
2017-10-16 01:00:00 9.7 0 Calma 7 Noroeste 0 -- -- 71
2017-10-16 00:00:00 10.1 2 Oeste 4 Oeste 0 -- -- 67
2017-10-15 23:00:00 11.8 0 Calma 5 Noroeste 0 -- -- 62
2017-10-15 22:00:00 13 0 Calma 5 Noroeste 0 -- -- 56
2017-10-15 21:00:00 15.4 0 Calma 8 Oeste 0 -- -- 50
2017-10-15 20:00:00 18.1 3 Noroeste 10 Norte 0 -- -- 43
2017-10-15 19:00:00 23.4 7 Nordeste 19 Nordeste 0 -- -- 37
2017-10-15 18:00:00 24.6 9 Nordeste 21 Norte 0 -- -- 36
2017-10-15 17:00:00 25.1 11 Nordeste 25 Nordeste 0 -- -- 35
2017-10-15 16:00:00 25.4 14 Nordeste 30 Nordeste 0 -- -- 36
2017-10-15 15:00:00 26.2 7 Nordeste 18 Nordeste 0 -- -- 36
2017-10-15 14:00:00 25.2 8 Nordeste 15 Nordeste 0 -- -- 38
2017-10-15 13:00:00 23.7 4 Nordeste 14 Norte 0 -- -- 40
2017-10-15 12:00:00 21.9 2 Nordeste 10 Nordeste 0 -- -- 43
2017-10-15 11:00:00 19.3 4 Noroeste 9 Oeste 0 -- -- 48
2017-10-15 10:00:00 13.7 0 Calma 8 Norte 0 -- -- 62
2017-10-15 09:00:00 11 0 Calma 4 Norte 0 -- -- 66
2017-10-15 08:00:00 10.6 3 Noroeste 9 Oeste 0 -- -- 65
2017-10-15 07:00:00 12.4 4 Noroeste 9 Oeste 0 -- -- 62
2017-10-15 06:00:00 11.4 4 Oeste 6 Oeste 0 -- -- 62
2017-10-15 05:00:00 11.7 0 Calma 7 Noroeste 0 -- -- 62
2017-10-15 04:00:00 12.2 3 Noroeste 14 Nordeste 0 -- -- 60
2017-10-15 03:00:00 12.5 4 Noroeste 7 Noroeste 0 -- -- 58
2017-10-15 02:00:00 12.3 3 Noroeste -- -- -- -- -- 58
2017-10-15 01:00:00 11.5 3 Norte 6 Oeste 0 -- -- 59
2017-10-15 00:00:00 10.7 3 Noroeste 5 Oeste 0 -- -- 59
2017-10-14 23:00:00 11.6 2 Noroeste 6 Noroeste 0 -- -- 56
2017-10-14 22:00:00 12.8 2 Noroeste 5 Noroeste 0 -- -- 51
2017-10-14 21:00:00 16 3 Oeste 7 Nordeste 0 -- -- 44
2017-10-14 20:00:00 19 2 Norte 9 Nordeste 0 -- -- 39
2017-10-14 19:00:00 23.2 2 Nordeste 15 Este 0 -- -- 35
2017-10-14 18:00:00 24.6 9 Nordeste 21 Nordeste 0 -- -- 34
2017-10-14 17:00:00 24.9 9 Nordeste 21 Nordeste 0 -- -- 35
2017-10-14 16:00:00 25 12 Nordeste 22 Este 0 -- -- 34
2017-10-14 15:00:00 24.4 10 Nordeste 24 Este 0 -- -- 36
2017-10-14 14:00:00 23.9 8 Nordeste 17 Norte 0 -- -- 37
2017-10-14 13:00:00 22.8 6 Nordeste 15 Nordeste 0 -- -- 38
2017-10-14 12:00:00 21.2 4 Nordeste 10 Nordeste 0 -- -- 43
2017-10-14 11:00:00 17 0 Calma 6 Oeste 0 -- -- 55
2017-10-14 10:00:00 11.1 4 Oeste 8 Oeste 0 -- -- 72
2017-10-14 09:00:00 6.7 0 Calma 7 Oeste 0 -- -- 84
2017-10-14 08:00:00 5.5 2 Noroeste 6 Oeste 0 -- -- 82
2017-10-14 07:00:00 6.4 5 Oeste 7 Oeste 0 -- -- 82
2017-10-14 06:00:00 7.2 0 Calma 10 Noroeste 0 -- -- 79
2017-10-14 05:00:00 7.2 6 Oeste 9 Oeste 0 -- -- 80
2017-10-14 04:00:00 7.1 2 Noroeste 7 Oeste 0 -- -- 77
2017-10-14 03:00:00 7.6 0 Calma 6 Noroeste 0 -- -- 74
2017-10-14 02:00:00 8 4 Oeste 6 Oeste 0 -- -- 71
2017-10-14 01:00:00 9 0 Calma 6 Oeste 0 -- -- 65
2017-10-14 00:00:00 10.6 0 Calma 11 Oeste 0 -- -- 60
2017-10-13 23:00:00 11 3 Noroeste 6 Noroeste 0 -- -- 59
2017-10-13 22:00:00 12.3 0 Calma 5 Oeste 0 -- -- 52
2017-10-13 21:00:00 15.5 0 Calma 7 Nordeste 0 -- -- 46
2017-10-13 20:00:00 18.7 0 Calma 10 Nordeste 0 -- -- 40
2017-10-13 19:00:00 23.6 7 Nordeste 19 Nordeste 0 -- -- 36
2017-10-13 18:00:00 24.4 9 Nordeste 21 Este 0 -- -- 36
2017-10-13 17:00:00 24.5 13 Nordeste 26 Este 0 -- -- 37
2017-10-13 16:00:00 24.7 11 Nordeste 26 Este 0 -- -- 38
2017-10-13 15:00:00 24.7 9 Nordeste 22 Nordeste 0 -- -- 38
2017-10-13 14:00:00 23.9 10 Nordeste 23 Este 0 -- -- 38
2017-10-13 13:00:00 24.1 6 Nordeste 17 Norte 0 -- -- 38
2017-10-13 12:00:00 22 3 Nordeste 12 Este 0 -- -- 42
2017-10-13 11:00:00 17.8 0 Calma 8 Oeste 0 -- -- 52
2017-10-13 10:00:00 12 4 Oeste 7 Oeste 0 -- -- 67
2017-10-13 09:00:00 7 0 Calma 8 Noroeste 0 -- -- 75
2017-10-13 08:00:00 6.5 2 Noroeste 10 Noroeste 0 -- -- 75
2017-10-13 07:00:00 7.8 8 Noroeste 10 Noroeste 0 -- -- 72
2017-10-13 06:00:00 8 5 Noroeste 10 Oeste 0 -- -- 72
2017-10-13 05:00:00 7.4 0 Calma 9 Noroeste 0 -- -- 69
2017-10-13 04:00:00 8.6 6 Oeste 9 Oeste 0 -- -- 69
2017-10-13 03:00:00 8.1 3 Oeste 7 Noroeste 0 -- -- 66
2017-10-13 02:00:00 9.3 3 Noroeste 6 Noroeste 0 -- -- 63
2017-10-13 01:00:00 9.9 0 Calma 7 Noroeste 0 -- -- 60
2017-10-13 00:00:00 10.2 4 Oeste 6 Oeste 0 -- -- 56
2017-10-12 23:00:00 11.2 0 Calma 6 Noroeste 0 -- -- 51
2017-10-12 22:00:00 12.7 4 Noroeste 5 Noroeste 0 -- -- 46
2017-10-12 21:00:00 15.3 0 Calma 7 Noroeste 0 -- -- 40
2017-10-12 20:00:00 18.6 4 Oeste 13 Nordeste 0 -- -- 35
2017-10-12 19:00:00 23.4 5 Nordeste 19 Norte 0 -- -- 31
2017-10-12 18:00:00 24.4 12 Nordeste 24 Nordeste 0 -- -- 31
2017-10-12 17:00:00 25.3 11 Nordeste 23 Este 0 -- -- 31
2017-10-12 16:00:00 25.3 9 Nordeste 21 Nordeste 0 -- -- 30
2017-10-12 15:00:00 24.7 10 Nordeste 24 Noroeste 0 -- -- 30
2017-10-12 14:00:00 24.5 8 Nordeste 19 Norte 0 -- -- 31
2017-10-12 13:00:00 22.8 9 Nordeste 17 Este 0 -- -- 33
2017-10-12 12:00:00 21.3 2 Nordeste 5 Oeste 0 -- -- 38
2017-10-12 11:00:00 16.2 0 Calma 8 Nordeste 0 -- -- 48
2017-10-12 10:00:00 10.8 4 Oeste 7 Oeste 0 -- -- 61
2017-10-12 09:00:00 6.3 0 Calma 8 Noroeste 0 -- -- 72
2017-10-12 08:00:00 5 5 Noroeste 7 Oeste 0 -- -- 73
2017-10-12 07:00:00 4.2 4 Oeste 6 Oeste 0 -- -- 73
2017-10-12 06:00:00 5 0 Calma 6 Oeste 0 -- -- 69
2017-10-12 05:00:00 5.7 5 Noroeste 7 Noroeste 0 -- -- 68
2017-10-12 04:00:00 6.5 3 Noroeste 9 Noroeste 0 -- -- 64
2017-10-12 03:00:00 8.2 5 Oeste 8 Oeste 0 -- -- 62
2017-10-12 02:00:00 8.4 4 Oeste 9 Oeste 0 -- -- 60
2017-10-12 01:00:00 9.5 3 Norte 10 Oeste 0 -- -- 55
2017-10-12 00:00:00 10.2 5 Oeste 8 Oeste 0 -- -- 55
2017-10-11 23:00:00 10.5 3 Noroeste 6 Noroeste 0 -- -- 51
2017-10-11 22:00:00 11.9 3 Noroeste 8 Norte 0 -- -- 44
2017-10-11 21:00:00 14.1 6 Noroeste -- -- -- -- -- 40
2017-10-11 20:00:00 16.8 2 Norte 19 Norte 0 -- -- 34
2017-10-11 19:00:00 22.6 9 Norte 25 Nordeste 0 -- -- 30
2017-10-11 18:00:00 23.8 13 Norte 30 Nordeste 0 -- -- 29
2017-10-11 17:00:00 24.5 14 Norte 39 Nordeste 0 -- -- 30
2017-10-11 16:00:00 24.8 16 Norte 28 Norte 0 -- -- 29
2017-10-11 15:00:00 24.1 14 Nordeste 30 Norte 0 -- -- 30
2017-10-11 14:00:00 23.9 11 Nordeste 23 Nordeste 0 -- -- 30
2017-10-11 13:00:00 22.8 9 Nordeste 18 Nordeste 0 -- -- 32
2017-10-11 12:00:00 21 4 Nordeste 8 Nordeste 0 -- -- 36
2017-10-11 11:00:00 17.1 2 Nordeste 4 Nordeste 0 -- -- 44
2017-10-11 10:00:00 10.8 0 Calma 6 Noroeste 0 -- -- 58
2017-10-11 09:00:00 4.9 0 Calma 8 Noroeste 0 -- -- 66
2017-10-11 08:00:00 3.5 3 Noroeste 8 Noroeste 0 -- -- 66
2017-10-11 07:00:00 3.9 3 Noroeste 7 Noroeste 0 -- -- 65
2017-10-11 06:00:00 4.8 0 Calma 9 Oeste 0 -- -- 63
2017-10-11 05:00:00 4.4 5 Noroeste 8 Oeste 0 -- -- 63
2017-10-11 04:00:00 5.1 6 Noroeste 9 Noroeste 0 -- -- 60
2017-10-11 03:00:00 5 5 Noroeste 7 Noroeste 0 -- -- 60
2017-10-11 02:00:00 7.6 2 Norte 9 Oeste 0 -- -- 58
2017-10-11 01:00:00 6.7 2 Noroeste 8 Oeste 0 -- -- 54
2017-10-11 00:00:00 7.3 2 Noroeste 6 Oeste 0 -- -- 51
2017-10-10 23:00:00 8.7 4 Noroeste 6 Noroeste 0 -- -- 48
2017-10-10 22:00:00 10.5 0 Calma 4 Oeste 0 -- -- 43
2017-10-10 21:00:00 13.1 3 Noroeste 11 Noroeste 0 -- -- 36
2017-10-10 20:00:00 16.8 3 Noroeste 12 Noroeste 0 -- -- 31
2017-10-10 19:00:00 23 8 Nordeste 18 Nordeste 0 -- -- 27
2017-10-10 18:00:00 24 8 Nordeste 21 Norte 0 -- -- 26
2017-10-10 17:00:00 24.3 10 Norte 26 Nordeste 0 -- -- 26
2017-10-10 16:00:00 25.3 8 Nordeste 24 Nordeste 0 -- -- 26
2017-10-10 15:00:00 24.6 12 Nordeste 23 Nordeste 0 -- -- 26
2017-10-10 14:00:00 24.5 7 Nordeste 17 Norte 0 -- -- 26
2017-10-10 13:00:00 23.1 7 Nordeste -- -- -- -- -- 28
2017-10-10 12:00:00 21.3 5 Nordeste 9 Nordeste 0.5 -- -- 32
2017-10-10 11:00:00 17.6 3 Norte 8 Noroeste 0 -- -- 40
2017-10-10 10:00:00 11.2 2 Noroeste 10 Oeste 0 -- -- 50
2017-10-10 09:00:00 4.3 2 Oeste 8 Noroeste 0 -- -- 63
2017-10-10 08:00:00 2.1 3 Norte 6 Oeste 0 -- -- 63
2017-10-10 07:00:00 2.7 2 Oeste 6 Oeste 0 -- -- 61
2017-10-10 06:00:00 3.4 3 Norte 9 Noroeste 0 -- -- 58
2017-10-10 05:00:00 3.5 3 Oeste 10 Oeste 0 -- -- 58
2017-10-10 04:00:00 4.3 6 Oeste 9 Oeste 0 -- -- 56
2017-10-10 03:00:00 5.1 3 Oeste 5 Oeste 0 -- -- 52
2017-10-10 02:00:00 5.2 3 Norte 6 Nordeste 0 -- -- 48
2017-10-10 01:00:00 9.4 6 Oeste 12 Oeste 0 -- -- 45
2017-10-10 00:00:00 9.1 7 Oeste 10 Oeste 0 -- -- 45
2017-10-09 23:00:00 8.6 4 Oeste 7 Oeste 0 -- -- 40
2017-10-09 22:00:00 9.7 3 Noroeste 5 Noroeste 0 -- -- 36
2017-10-09 21:00:00 11.6 4 Noroeste 8 Norte 0 -- -- 31
2017-10-09 20:00:00 17.8 4 Noroeste 14 Norte 0 -- -- 25
2017-10-09 19:00:00 23.3 7 Norte 21 Noroeste 0 -- -- 23
2017-10-09 18:00:00 24 12 Noroeste 24 Noroeste 0 -- -- 23
2017-10-09 17:00:00 24.2 14 Noroeste 25 Oeste 0 -- -- 23
2017-10-09 16:00:00 25.4 12 Noroeste 21 Noroeste 0 -- -- 24
2017-10-09 15:00:00 24.9 10 Noroeste 24 Oeste 0 -- -- 25
2017-10-09 14:00:00 24.6 4 Norte 19 Nordeste 0 -- -- 25
2017-10-09 13:00:00 23 9 Nordeste 17 Nordeste 0 -- -- 27
2017-10-09 12:00:00 22.2 6 Nordeste 11 Este 0 -- -- 31
2017-10-09 11:00:00 18.3 0 Calma 4 Nordeste 0 -- -- 36
2017-10-09 10:00:00 13.4 0 Calma 5 Oeste 0 -- -- 44
2017-10-09 09:00:00 6.5 2 Noroeste 8 Noroeste 0 -- -- 52
2017-10-09 08:00:00 4.4 3 Oeste 10 Noroeste 0 -- -- 53
2017-10-09 07:00:00 5.3 3 Noroeste 10 Oeste 0 -- -- 51
2017-10-09 06:00:00 3.7 3 Noroeste 5 Noroeste 0 -- -- 52
2017-10-09 05:00:00 4.3 3 Noroeste 5 Noroeste 0 -- -- 49
2017-10-09 04:00:00 6.7 0 Calma 13 Oeste 0 -- -- 43
2017-10-09 03:00:00 8.1 6 Oeste 14 Oeste 0 -- -- 42
2017-10-09 02:00:00 9.3 8 Oeste 16 Oeste 0 -- -- 40
2017-10-09 01:00:00 9.6 4 Noroeste 12 Oeste 0 -- -- 38
2017-10-09 00:00:00 10.1 4 Noroeste 18 Noroeste 0 -- -- 34
2017-10-08 23:00:00 13.1 8 Noroeste 13 Oeste 0 -- -- 32
2017-10-08 22:00:00 14.4 2 Norte 19 Norte 0 -- -- 29
2017-10-08 21:00:00 11.6 4 Noroeste 7 Oeste 0 -- -- 29
2017-10-08 20:00:00 18.7 3 Noroeste 18 Noroeste 0 -- -- 22
2017-10-08 19:00:00 23.8 10 Noroeste 24 Noroeste 0 -- -- 21
2017-10-08 18:00:00 24.8 10 Noroeste 26 Oeste 0 -- -- 20
2017-10-08 17:00:00 25 13 Noroeste 26 Noroeste 0 -- -- 20
2017-10-08 16:00:00 26.3 8 Noroeste 20 Noroeste 0 -- -- 21
2017-10-08 15:00:00 25.8 6 Norte 17 Noroeste 0 -- -- 25
2017-10-08 14:00:00 24.1 8 Nordeste 16 Este 0 -- -- 27
2017-10-08 13:00:00 22.7 4 Nordeste 9 Nordeste 0 -- -- 28
2017-10-08 12:00:00 20.2 2 Nordeste 9 Norte 0 -- -- 33
2017-10-08 11:00:00 16.1 2 Nordeste 8 Noroeste 0 -- -- 41
2017-10-08 10:00:00 11 0 Calma 6 Oeste 0 -- -- 51
2017-10-08 09:00:00 4 2 Nordeste 7 Noroeste 0 -- -- 64
2017-10-08 08:00:00 1.7 3 Noroeste 6 Noroeste 0 -- -- 63
2017-10-08 07:00:00 2.2 3 Noroeste 7 Oeste 0 -- -- 61
2017-10-08 06:00:00 3.3 3 Oeste 9 Oeste 0 -- -- 60
2017-10-08 05:00:00 3 2 Noroeste 6 Noroeste 0 -- -- 57
2017-10-08 04:00:00 3.4 0 Calma 4 Oeste 0 -- -- 54
2017-10-08 03:00:00 5 2 Noroeste 10 Noroeste 0 -- -- 51
2017-10-08 02:00:00 5.8 5 Noroeste 8 Oeste 0 -- -- 48
2017-10-08 01:00:00 5.4 4 Noroeste 5 Noroeste 0 -- -- 45
2017-10-08 00:00:00 7.8 0 Calma 8 Oeste 0 -- -- 42
2017-10-07 23:00:00 6.9 0 Calma 5 Noroeste 0 -- -- 36
2017-10-07 22:00:00 8.8 3 Noroeste 6 Oeste 0 -- -- 32
2017-10-07 21:00:00 12.2 0 Calma 11 Noroeste 0 -- -- 26
2017-10-07 20:00:00 15.6 4 Noroeste 11 Nordeste 0 -- -- 22
2017-10-07 19:00:00 22.2 7 Norte 18 Nordeste 0 -- -- 19
2017-10-07 18:00:00 22.7 11 Nordeste 22 Nordeste 0 -- -- 19
2017-10-07 17:00:00 23.5 10 Nordeste 23 Este 0 -- -- 20
2017-10-07 16:00:00 24.4 8 Nordeste 21 Nordeste 0 -- -- 20
2017-10-07 15:00:00 23.7 10 Nordeste 22 Nordeste 0 -- -- 20
2017-10-07 14:00:00 23.3 8 Nordeste 15 Este 0 -- -- 20
2017-10-07 13:00:00 22.4 7 Nordeste 12 Norte 0 -- -- 21
2017-10-07 12:00:00 20.8 3 Nordeste 8 Nordeste 0 -- -- 28
2017-10-07 11:00:00 16.2 4 Oeste 8 Nordeste 0 -- -- 39
2017-10-07 10:00:00 11.7 3 Nordeste 10 Noroeste 0 -- -- 49
2017-10-07 09:00:00 6 6 Oeste 10 Oeste 0 -- -- 67
2017-10-07 08:00:00 3.2 3 Oeste 8 Noroeste 0 -- -- 69
2017-10-07 07:00:00 4.4 8 Noroeste 10 Noroeste 0 -- -- 69
2017-10-07 06:00:00 4.2 0 Calma 12 Oeste 0 -- -- 72
2017-10-07 05:00:00 4.7 4 Noroeste 9 Oeste 0 -- -- 69
2017-10-07 04:00:00 6.6 6 Oeste 14 Oeste 0 -- -- 65
2017-10-07 03:00:00 7.8 5 Oeste 11 Oeste 0 -- -- 64
2017-10-07 02:00:00 10.5 6 Noroeste 16 Noroeste 0 -- -- 56
2017-10-07 01:00:00 12 2 Nordeste 10 Nordeste 0 -- -- 54
2017-10-07 00:00:00 12.4 0 Calma 16 Noroeste 0 -- -- 53
2017-10-06 23:00:00 15.6 10 Noroeste 23 Noroeste 0 -- -- 50
2017-10-06 22:00:00 15.9 12 Noroeste 20 Noroeste 0 -- -- 48
2017-10-06 21:00:00 17.5 12 Noroeste 27 Noroeste 0 -- -- 43
2017-10-06 20:00:00 19.6 9 Noroeste 27 Noroeste 0 -- -- 39
2017-10-06 19:00:00 22.9 12 Noroeste 25 Noroeste 0 -- -- 31
2017-10-06 18:00:00 24 13 Norte 31 Noroeste 0 -- -- 24
2017-10-06 17:00:00 24.4 11 Noroeste 24 Norte 0 -- -- 25
2017-10-06 16:00:00 25.1 12 Noroeste 26 Oeste 0 -- -- 23
2017-10-06 15:00:00 24.6 17 Noroeste 38 Noroeste 0 -- -- 24
2017-10-06 14:00:00 24.8 16 Noroeste 33 Noroeste 0 -- -- 23
2017-10-06 13:00:00 24.6 16 Noroeste 31 Noroeste 0 -- -- 24
2017-10-06 12:00:00 23.8 10 Norte 23 Norte 0 -- -- 24
2017-10-06 11:00:00 21.9 4 Nordeste 8 Norte 0 -- -- 37
2017-10-06 10:00:00 15.2 5 Oeste 11 Oeste 0 -- -- 54
2017-10-06 09:00:00 8.9 3 Oeste 11 Oeste 0 -- -- 73
2017-10-06 08:00:00 7.1 5 Oeste 8 Oeste 0 -- -- 75
2017-10-06 07:00:00 7.3 4 Noroeste 6 Oeste 0 -- -- 76
2017-10-06 06:00:00 8.6 4 Noroeste 9 Noroeste 0 -- -- 69
2017-10-06 05:00:00 10.1 2 Norte 10 Oeste 0 -- -- 64
2017-10-06 04:00:00 10.6 5 Oeste 10 Oeste 0 -- -- 64
2017-10-06 03:00:00 10.6 4 Noroeste 6 Oeste 0 -- -- 60
2017-10-06 02:00:00 13.6 0 Calma 12 Noroeste 0 -- -- 55
2017-10-06 01:00:00 13.6 0 Calma 8 Noroeste 0 -- -- 55
2017-10-06 00:00:00 12.4 0 Calma 13 Norte 0 -- -- 54
2017-10-05 23:00:00 14.8 0 Calma 8 Oeste 0 -- -- 48
2017-10-05 22:00:00 15 2 Noroeste 6 Oeste 0 -- -- 46
2017-10-05 21:00:00 17.6 4 Noroeste 12 Oeste 0 -- -- 40
2017-10-05 20:00:00 21.9 6 Noroeste 18 Noroeste 0 -- -- 33
2017-10-05 19:00:00 26.7 10 Noroeste 25 Noroeste 0 -- -- 27
2017-10-05 18:00:00 27.2 10 Noroeste 25 Noroeste 0 -- -- 27
2017-10-05 17:00:00 27.2 13 Noroeste 27 Noroeste 0 -- -- 26
2017-10-05 16:00:00 27.8 13 Noroeste 27 Noroeste 0 -- -- 27
2017-10-05 15:00:00 27.6 12 Norte 31 Norte 0 -- -- 28
2017-10-05 14:00:00 26.8 14 Noroeste 29 Noroeste 0 -- -- 29
2017-10-05 13:00:00 25.8 5 Nordeste 11 Norte 0 -- -- 36
2017-10-05 12:00:00 22.8 3 Nordeste 8 Nordeste 0 -- -- 44
2017-10-05 11:00:00 19.4 3 Norte 9 Noroeste 0 -- -- 53
2017-10-05 10:00:00 14.6 0 Calma 9 Oeste 0 -- -- 69
2017-10-05 09:00:00 9.9 6 Oeste 9 Oeste 0 -- -- 89
2017-10-05 08:00:00 7.7 0 Calma 7 Oeste 0 -- -- 90
2017-10-05 07:00:00 7.9 4 Noroeste 7 Noroeste 0 -- -- 90
2017-10-05 06:00:00 8.6 0 Calma 4 Noroeste 0 -- -- 88
2017-10-05 05:00:00 9.9 0 Calma 8 Oeste 0 -- -- 86
2017-10-05 04:00:00 9.8 3 Oeste 6 Oeste 0 -- -- 86
2017-10-05 03:00:00 10.4 0 Calma 8 Noroeste 0 -- -- 83
2017-10-05 02:00:00 10.5 0 Calma 6 Noroeste 0 -- -- 80
2017-10-05 01:00:00 12.7 5 Noroeste 9 Noroeste 0 -- -- 77
2017-10-05 00:00:00 12.2 0 Calma 3 Norte 0 -- -- 71
2017-10-04 23:00:00 13.7 2 Noroeste 5 Norte 0 -- -- 65
2017-10-04 22:00:00 15.7 2 Noroeste 9 Noroeste 0 -- -- 58
2017-10-04 21:00:00 18.3 6 Noroeste 10 Noroeste 0 -- -- 50
2017-10-04 20:00:00 20.7 0 Calma 10 Nordeste 0 -- -- 43
2017-10-04 19:00:00 23.7 7 Nordeste 16 Norte 0 -- -- 40
2017-10-04 18:00:00 24.8 8 Norte 17 Nordeste 0 -- -- 38
2017-10-04 17:00:00 25.6 9 Nordeste 19 Nordeste 0 -- -- 38
2017-10-04 16:00:00 25.2 8 Nordeste 21 Nordeste 0 -- -- 38
2017-10-04 15:00:00 25 8 Nordeste 17 Nordeste 0 -- -- 40
2017-10-04 14:00:00 24.5 5 Nordeste 17 Norte 0 -- -- 45
2017-10-04 13:00:00 23.1 6 Nordeste 17 Este 0 -- -- 49
2017-10-04 12:00:00 21.1 4 Nordeste 9 Nordeste 0 -- -- 50
2017-10-04 11:00:00 18 0 Calma 8 Oeste 0 -- -- 58
2017-10-04 10:00:00 13.3 3 Oeste 7 Oeste 0 -- -- 73
2017-10-04 09:00:00 9.5 0 Calma 7 Norte 0 -- -- 86
2017-10-04 08:00:00 7.6 0 Calma 3 Noroeste 0 -- -- 86
2017-10-04 07:00:00 9 0 Calma 10 Oeste 0 -- -- 85
2017-10-04 06:00:00 9.3 5 Noroeste 10 Oeste 0 -- -- 86
2017-10-04 05:00:00 8.8 0 Calma 8 Norte 0 -- -- 81
2017-10-04 04:00:00 10.2 3 Noroeste 7 Oeste 0 -- -- 78
2017-10-04 03:00:00 11 3 Oeste 9 Oeste 0 -- -- 74
2017-10-04 02:00:00 11.7 3 Oeste 6 Norte 0 -- -- 69
2017-10-04 01:00:00 14.4 5 Noroeste 13 Noroeste 0 -- -- 62
2017-10-04 00:00:00 14.7 2 Nordeste 13 Oeste 0 -- -- 59
2017-10-03 23:00:00 15.5 3 Noroeste 11 Oeste 0 -- -- 55
2017-10-03 22:00:00 15.8 3 Norte 6 Nordeste 0 -- -- 54
2017-10-03 21:00:00 19 2 Noroeste 24 Oeste 0 -- -- 43
2017-10-03 20:00:00 22.1 5 Noroeste 14 Noroeste 0 -- -- 37
2017-10-03 19:00:00 26.4 8 Noroeste 22 Oeste 0 -- -- 31
2017-10-03 18:00:00 26.7 10 Noroeste 23 Noroeste 0 -- -- 33
2017-10-03 17:00:00 26.8 12 Noroeste 31 Noroeste 0 -- -- 33
2017-10-03 16:00:00 27.7 13 Noroeste 28 Noroeste 0 -- -- 33
2017-10-03 15:00:00 27.1 10 Noroeste 35 Oeste 0 -- -- 36
2017-10-03 14:00:00 26 8 Norte 19 Oeste 0 -- -- 39
2017-10-03 13:00:00 25.6 5 Nordeste 13 Norte 0 -- -- 42
2017-10-03 12:00:00 23.5 4 Nordeste 8 Este 0 -- -- 46
2017-10-03 11:00:00 20.5 3 Nordeste 10 Noroeste 0 -- -- 54
2017-10-03 10:00:00 15.5 3 Oeste 9 Noroeste 0 -- -- 71
2017-10-03 09:00:00 11 0 Calma 4 Norte 0 -- -- 91
2017-10-03 08:00:00 10 2 Norte 8 Oeste 0 -- -- 92
2017-10-03 07:00:00 9.4 3 Oeste 7 Oeste 0 -- -- 92
2017-10-03 06:00:00 10 2 Noroeste 6 Noroeste 0 -- -- 92
2017-10-03 05:00:00 10.4 3 Noroeste 6 Oeste 0 -- -- 91
2017-10-03 04:00:00 10.8 0 Calma 6 Oeste 0 -- -- 90
2017-10-03 03:00:00 10.9 0 Calma 4 Noroeste 0 -- -- 88
2017-10-03 02:00:00 11.5 0 Calma 3 Norte 0 -- -- 84
2017-10-03 01:00:00 13.4 0 Calma 8 Oeste 0 -- -- 78
2017-10-03 00:00:00 14.6 3 Noroeste 8 Oeste 0 -- -- 74
2017-10-02 23:00:00 16.6 3 Noroeste 9 Oeste 0 -- -- 68
2017-10-02 22:00:00 17.3 0 Calma 6 Norte 0 -- -- 62
2017-10-02 21:00:00 20.6 0 Calma 15 Noroeste 0 -- -- 55
2017-10-02 20:00:00 22.9 6 Noroeste 14 Noroeste 0 -- -- 47
2017-10-02 19:00:00 25.7 7 Noroeste 22 Noroeste 0 -- -- 42
2017-10-02 18:00:00 25.6 11 Noroeste 21 Noroeste 0 -- -- 43
2017-10-02 17:00:00 26.3 9 Norte 21 Noroeste 0 -- -- 43
2017-10-02 16:00:00 26 8 Noroeste 22 Noroeste 0 -- -- 45
2017-10-02 15:00:00 -- 10 Noroeste 22 Noroeste 0 -- -- --
2017-10-02 14:00:00 24.3 12 Noroeste 26 Norte 0 -- -- 50
2017-10-02 13:00:00 23.9 11 Norte 29 Noroeste 0 -- -- 54
2017-10-02 12:00:00 21.9 11 Noroeste 26 Noroeste 0 -- -- 62
2017-10-02 11:00:00 18.8 11 Noroeste 28 Noroeste 0 -- -- 70
2017-10-02 10:00:00 18.3 9 Norte 33 Norte 0 -- -- 67
2017-10-02 09:00:00 18 11 Noroeste 26 Noroeste 0 -- -- 60
2017-10-02 08:00:00 15.2 9 Norte 17 Oeste 0 -- -- 71
2017-10-02 07:00:00 12.6 5 Oeste 12 Oeste 0 -- -- 80
2017-10-02 06:00:00 10.9 0 Calma 7 Noroeste 0 -- -- 83
2017-10-02 05:00:00 11.5 6 Oeste 10 Oeste 0 -- -- 83
2017-10-02 04:00:00 11.3 6 Noroeste 12 Oeste 0 -- -- 82
2017-10-02 03:00:00 12.1 2 Noroeste 10 Oeste 0 -- -- 78
2017-10-02 02:00:00 11.9 5 Oeste 8 Noroeste 0 -- -- 79
2017-10-02 01:00:00 12.8 3 Noroeste 10 Oeste 0 -- -- 72
2017-10-02 00:00:00 13.8 5 Oeste 8 Oeste 0 -- -- 68
2017-10-01 23:00:00 15.9 0 Calma 15 Noroeste 0 -- -- 61
2017-10-01 22:00:00 17.8 8 Norte 15 Norte 0 -- -- 56
2017-10-01 21:00:00 17.9 6 Noroeste 12 Norte 0 -- -- 54
2017-10-01 20:00:00 19.7 6 Noroeste 17 Noroeste 0 -- -- 51
2017-10-01 19:00:00 20.8 8 Noroeste 19 Noroeste 0 -- -- 49
2017-10-01 18:00:00 21.3 6 Noroeste 25 Noroeste 0 -- -- 48
2017-10-01 17:00:00 21.9 14 Noroeste 30 Noroeste 0 -- -- 47
2017-10-01 16:00:00 22.5 14 Noroeste 33 Noroeste 0 -- -- 47
2017-10-01 15:00:00 21.8 14 Noroeste 28 Noroeste 0 -- -- 48
2017-10-01 14:00:00 21.1 9 Noroeste 26 Noroeste 0 -- -- 50
2017-10-01 13:00:00 20.7 13 Noroeste 31 Noroeste 0 -- -- 50
2017-10-01 12:00:00 19.6 13 Norte 24 Norte 0 -- -- 51
2017-10-01 11:00:00 17.5 7 Noroeste 21 Noroeste 0 -- -- 61
2017-10-01 10:00:00 16.7 10 Noroeste 23 Norte 0 -- -- 62
2017-10-01 09:00:00 15.9 9 Norte 22 Norte 0 -- -- 65
2017-10-01 08:00:00 15 5 Noroeste 13 Norte 0 -- -- 71
2017-10-01 07:00:00 12.9 2 Noroeste 8 Noroeste 0 -- -- 75
2017-10-01 06:00:00 12.6 0 Calma 7 Oeste 0 -- -- 74
2017-10-01 05:00:00 12.6 2 Noroeste 8 Noroeste 0 -- -- 72
2017-10-01 04:00:00 13.6 4 Noroeste 13 Oeste 0 -- -- 68
2017-10-01 03:00:00 14 5 Oeste 11 Noroeste 0 -- -- 65
2017-10-01 02:00:00 15.3 5 Noroeste 18 Noroeste 0 -- -- 62
2017-10-01 01:00:00 17.8 8 Noroeste 22 Noroeste 0 -- -- 57
2017-10-01 00:00:00 17.6 8 Noroeste 17 Norte 0 -- -- 57
2017-09-30 23:00:00 18.1 9 Noroeste 21 Norte 0 -- -- 53
2017-09-30 22:00:00 16.4 4 Noroeste 8 Noroeste 0 -- -- 52
2017-09-30 21:00:00 19.3 3 Norte 10 Norte 0 -- -- 47
2017-09-30 20:00:00 20.8 4 Noroeste 19 Noroeste 0 -- -- 45
2017-09-30 19:00:00 21.8 9 Oeste 27 Oeste 0 -- -- 44
2017-09-30 18:00:00 22.5 12 Noroeste 30 Noroeste 0 -- -- 41
2017-09-30 17:00:00 23.3 17 Noroeste 31 Noroeste 0 -- -- 41
2017-09-30 16:00:00 24.9 13 Oeste 30 Noroeste 0 -- -- 37
2017-09-30 15:00:00 24.9 3 Noroeste 14 Nordeste 0 -- -- 40
2017-09-30 14:00:00 23.7 8 Nordeste 17 Este 0 -- -- 41
2017-09-30 13:00:00 21.7 4 Nordeste 9 Este 0 -- -- 44
2017-09-30 12:00:00 19 3 Nordeste 7 Nordeste 0 -- -- 53
2017-09-30 11:00:00 16.5 2 Nordeste 6 Nordeste 0 -- -- 66
2017-09-30 10:00:00 14 4 Oeste 8 Oeste 0 -- -- 72
2017-09-30 09:00:00 12 5 Oeste 7 Oeste 0 -- -- 76
2017-09-30 08:00:00 11.2 0 Calma 8 Noroeste 0 -- -- 78
2017-09-30 07:00:00 12.1 4 Noroeste 10 Oeste 0 -- -- 76
2017-09-30 06:00:00 11 4 Oeste 8 Noroeste 0 -- -- 78
2017-09-30 05:00:00 10.9 6 Noroeste 8 Noroeste 0 -- -- 78
2017-09-30 04:00:00 10.3 4 Noroeste 6 Noroeste 0 -- -- 76
2017-09-30 03:00:00 11.2 6 Oeste 8 Oeste 0 -- -- 74
2017-09-30 02:00:00 11.1 0 Calma 8 Noroeste 0 -- -- 70
2017-09-30 01:00:00 11.8 5 Oeste 7 Oeste 0 -- -- 68
2017-09-30 00:00:00 13.4 4 Nordeste 8 Oeste 0 -- -- 63
2017-09-29 23:00:00 14.1 2 Noroeste 4 Norte 0 -- -- 56
2017-09-29 22:00:00 16.7 0 Calma 8 Noroeste 0 -- -- 48
2017-09-29 21:00:00 19.8 0 Calma 8 Oeste 0 -- -- 42
2017-09-29 20:00:00 22.1 5 Noroeste 7 Noroeste 0 -- -- 38
2017-09-29 19:00:00 23.7 3 Noroeste 10 Noroeste 0 -- -- 36
2017-09-29 18:00:00 24.6 5 Oeste 16 Noroeste 0 -- -- 34
2017-09-29 17:00:00 26.4 8 Noroeste 17 Norte 0 -- -- 33
2017-09-29 16:00:00 25.2 9 Oeste 22 Oeste 0 -- -- 35
2017-09-29 15:00:00 24.6 6 Norte 21 Nordeste 0 -- -- 36
2017-09-29 14:00:00 25.4 9 Nordeste 22 Nordeste 0 -- -- 35
2017-09-29 13:00:00 24.5 4 Nordeste 13 Este 0 -- -- 36
2017-09-29 12:00:00 21.9 4 Nordeste 9 Este 0 -- -- 42
2017-09-29 11:00:00 18.1 0 Calma 10 Norte 0 -- -- 52
2017-09-29 10:00:00 14.4 0 Calma 4 Nordeste 0 -- -- 65
2017-09-29 09:00:00 9.1 0 Calma 5 Oeste 0 -- -- 84
2017-09-29 08:00:00 7.8 0 Calma 9 Oeste 0 -- -- 86
2017-09-29 07:00:00 7.4 0 Calma 6 Oeste 0 -- -- 84
2017-09-29 06:00:00 7.8 5 Noroeste 9 Oeste 0 -- -- 83
2017-09-29 05:00:00 7.9 0 Calma 9 Noroeste 0 -- -- 79
2017-09-29 04:00:00 8.6 4 Norte 9 Noroeste 0 -- -- 79
2017-09-29 03:00:00 9.5 4 Oeste 6 Oeste 0 -- -- 74
2017-09-29 02:00:00 11 0 Calma 9 Oeste 0 -- -- 71
2017-09-29 01:00:00 10.2 4 Noroeste 5 Oeste 0 -- -- 71
2017-09-29 00:00:00 11.3 2 Noroeste 6 Oeste 0 -- -- 66
2017-09-28 23:00:00 12 2 Noroeste 5 Norte 0 -- -- 59
2017-09-28 22:00:00 14.6 0 Calma 6 Noroeste 0 -- -- 50
2017-09-28 21:00:00 16.8 3 Noroeste 7 Noroeste 0 -- -- 43
2017-09-28 20:00:00 21.5 3 Nordeste 17 Nordeste 0 -- -- 35
2017-09-28 19:00:00 23.7 8 Nordeste 20 Nordeste 0 -- -- 32
2017-09-28 18:00:00 24.2 10 Nordeste 21 Este 0 -- -- 30
2017-09-28 17:00:00 25.2 9 Nordeste 21 Este 0 -- -- 29
2017-09-28 16:00:00 25 9 Norte 23 Nordeste 0 -- -- 30
2017-09-28 15:00:00 24.8 9 Nordeste 22 Norte 0 -- -- 30
2017-09-28 14:00:00 23.6 8 Nordeste 21 Norte 0 -- -- 31
2017-09-28 13:00:00 23 6 Nordeste 15 Nordeste 0 -- -- 36
2017-09-28 12:00:00 21.6 2 Norte 8 Nordeste 0 -- -- 41
2017-09-28 11:00:00 17.4 0 Calma 10 Oeste 0 -- -- 52
2017-09-28 10:00:00 12.3 5 Oeste 8 Noroeste 0 -- -- 71
2017-09-28 09:00:00 7.7 0 Calma 7 Noroeste 0 -- -- 90
2017-09-28 08:00:00 5.9 2 Oeste 7 Noroeste 0 -- -- 90
2017-09-28 07:00:00 7 0 Calma 8 Oeste 0 -- -- 88
2017-09-28 06:00:00 7.4 0 Calma 7 Oeste 0 -- -- 89
2017-09-28 05:00:00 7.2 2 Oeste 6 Oeste 0 -- -- 86
2017-09-28 04:00:00 7.7 0 Calma 9 Noroeste 0 -- -- 84
2017-09-28 03:00:00 9.3 4 Noroeste 9 Noroeste 0 -- -- 82
2017-09-28 02:00:00 9.2 6 Oeste 10 Oeste 0 -- -- 81
2017-09-28 01:00:00 8.9 2 Noroeste 6 Oeste 0 -- -- 76
2017-09-28 00:00:00 10.2 3 Noroeste 5 Oeste 0 -- -- 72
2017-09-27 23:00:00 11.1 3 Noroeste 6 Noroeste 0 -- -- 65
2017-09-27 22:00:00 13.1 0 Calma 6 Noroeste 0 -- -- 56
2017-09-27 21:00:00 16.1 6 Noroeste 8 Noroeste 0 -- -- 51
2017-09-27 20:00:00 20.5 3 Nordeste 19 Norte 0 -- -- 42
2017-09-27 19:00:00 21.9 9 Norte 22 Nordeste 0 -- -- 41
2017-09-27 18:00:00 22.2 12 Nordeste 21 Nordeste 0 -- -- 41
2017-09-27 17:00:00 23 9 Nordeste 22 Este 0 -- -- 41
2017-09-27 16:00:00 22.7 9 Nordeste 23 Este 0 -- -- 42
2017-09-27 15:00:00 22.4 9 Nordeste 23 Este 0 -- -- 44
2017-09-27 14:00:00 22.2 8 Nordeste 19 Nordeste 0 -- -- 46
2017-09-27 13:00:00 20.9 8 Nordeste 19 Nordeste 0 -- -- 47
2017-09-27 12:00:00 19.6 2 Nordeste 8 Este 0 -- -- 52
2017-09-27 11:00:00 16.6 3 Nordeste 8 Noroeste 0 -- -- 59
2017-09-27 10:00:00 11.9 3 Oeste 8 Oeste 0 -- -- 68
2017-09-27 09:00:00 6.4 0 Calma 6 Oeste 0 -- -- 86
2017-09-27 08:00:00 5.6 0 Calma 8 Noroeste 0 -- -- 90
2017-09-27 07:00:00 5.2 0 Calma 10 Oeste 0 -- -- 88
2017-09-27 06:00:00 5.2 0 Calma 12 Noroeste 0 -- -- 85
2017-09-27 05:00:00 6.5 3 Noroeste 12 Noroeste 0 -- -- 82
2017-09-27 04:00:00 6.9 2 Noroeste 9 Oeste 0 -- -- 80
2017-09-27 03:00:00 6.6 4 Oeste 6 Noroeste 0 -- -- 79
2017-09-27 02:00:00 7.8 3 Noroeste 5 Noroeste 0 -- -- 76
2017-09-27 01:00:00 8.5 3 Oeste 5 Nordeste 0 -- -- 71
2017-09-27 00:00:00 10.4 0 Calma 8 Oeste 0 -- -- 65
2017-09-26 23:00:00 11.2 0 Calma 5 Noroeste 0 -- -- 59
2017-09-26 22:00:00 12.7 3 Noroeste 6 Noroeste 0 -- -- 51
2017-09-26 21:00:00 15.4 3 Noroeste 8 Nordeste 0 -- -- 44
2017-09-26 20:00:00 20.3 0 Calma 10 Nordeste 0 -- -- 37
2017-09-26 19:00:00 22.8 4 Norte 14 Norte 0 -- -- 35
2017-09-26 18:00:00 22.3 5 Nordeste 16 Norte 0 -- -- 34
2017-09-26 17:00:00 23.6 5 Norte 15 Norte 0 -- -- 33
2017-09-26 16:00:00 23.1 6 Nordeste 19 Nordeste 0 -- -- 35
2017-09-26 15:00:00 22.7 5 Noroeste 16 Oeste 0 -- -- 35
2017-09-26 14:00:00 21.2 5 Noroeste 15 Nordeste 0 -- -- 38
2017-09-26 13:00:00 20.8 6 Noroeste 14 Nordeste 0 -- -- 38
2017-09-26 12:00:00 19.2 4 Nordeste 11 Nordeste 0 -- -- 44
2017-09-26 11:00:00 16.5 0 Calma 5 Nordeste 0 -- -- 51
2017-09-26 10:00:00 11.7 3 Nordeste 8 Oeste 0 -- -- 68
2017-09-26 09:00:00 6.6 0 Calma 5 Noroeste 0 -- -- 87
2017-09-26 08:00:00 3.6 0 Calma 5 Noroeste 0 -- -- 89
2017-09-26 07:00:00 3.9 0 Calma 4 Noroeste 0 -- -- 88
2017-09-26 06:00:00 4.3 0 Calma 5 Noroeste 0 -- -- 86
2017-09-26 05:00:00 5.5 2 Norte 8 Noroeste 0 -- -- 81
2017-09-26 04:00:00 6 5 Noroeste 8 Noroeste 0 -- -- 79
2017-09-26 03:00:00 8.9 0 Calma 14 Oeste 0 -- -- 72
2017-09-26 02:00:00 8.2 4 Oeste 9 Oeste 0 -- -- 71
2017-09-26 01:00:00 9.9 3 Noroeste 7 Norte 0 -- -- 63
2017-09-26 00:00:00 13.9 4 Nordeste 25 Noroeste 0 -- -- 53
2017-09-25 23:00:00 15.6 13 Noroeste 28 Noroeste 0 -- -- 51
2017-09-25 22:00:00 15.9 13 Noroeste 24 Norte 0 -- -- 48
2017-09-25 21:00:00 14.4 4 Noroeste 10 Norte 0 -- -- 44
2017-09-25 20:00:00 18.6 6 Noroeste 24 Noroeste 0 -- -- 40
2017-09-25 19:00:00 20.2 15 Noroeste 32 Oeste 0 -- -- 38
2017-09-25 18:00:00 21 17 Noroeste 37 Noroeste 0 -- -- 37
2017-09-25 17:00:00 21.5 19 Noroeste 39 Noroeste 0 -- -- 36
2017-09-25 16:00:00 21.5 21 Noroeste 39 Noroeste 0 -- -- 37
2017-09-25 15:00:00 21.6 18 Noroeste 36 Noroeste 0 -- -- 37
2017-09-25 14:00:00 21.9 14 Noroeste 28 Norte 0 -- -- 37
2017-09-25 13:00:00 20.7 13 Noroeste 30 Noroeste 0 -- -- 42
2017-09-25 12:00:00 19.4 14 Noroeste 30 Noroeste 0 -- -- 52
2017-09-25 11:00:00 19.3 8 Nordeste 19 Nordeste 0 -- -- 54
2017-09-25 10:00:00 17.6 5 Norte 11 Norte 0 -- -- 54
2017-09-25 09:00:00 13.9 4 Norte 14 Noroeste 0 -- -- 58
2017-09-25 08:00:00 14.3 7 Noroeste 19 Noroeste 0 -- -- 63
2017-09-25 07:00:00 14.6 6 Norte 24 Oeste 0 -- -- 51
2017-09-25 06:00:00 12.1 4 Noroeste 10 Noroeste 0 -- -- 55
2017-09-25 05:00:00 14.4 7 Noroeste 15 Noroeste 0 -- -- 52
2017-09-25 04:00:00 12 0 Calma 6 Oeste 0 -- -- 55
2017-09-25 03:00:00 12.2 0 Calma 4 Norte 0 -- -- 56
2017-09-25 02:00:00 13.7 0 Calma 9 Nordeste 0 -- -- 51
2017-09-25 01:00:00 12.8 3 Norte 8 Noroeste 0 -- -- 54
2017-09-25 00:00:00 13 3 Noroeste 9 Noroeste 0 -- -- 52
2017-09-24 23:00:00 15 5 Noroeste 10 Noroeste 0 -- -- 47
2017-09-24 22:00:00 15.4 2 Norte 6 Nordeste 0 -- -- 43
2017-09-24 21:00:00 19.4 2 Norte 12 Noroeste 0 -- -- 37
2017-09-24 20:00:00 23 4 Noroeste 18 Norte 0 -- -- 33
2017-09-24 19:00:00 25.6 10 Norte 19 Noroeste 0 -- -- 31
2017-09-24 18:00:00 26 6 Norte 29 Norte 0 -- -- 30
2017-09-24 17:00:00 26.3 9 Norte 25 Nordeste 0 -- -- 31
2017-09-24 16:00:00 26.4 11 Norte 28 Este 0 -- -- 31
2017-09-24 15:00:00 25.4 11 Nordeste 35 Nordeste 0 -- -- 33
2017-09-24 14:00:00 24.7 9 Nordeste 26 Noroeste 0 -- -- 33
2017-09-24 13:00:00 24.8 7 Norte 17 Norte 0 -- -- 34
2017-09-24 12:00:00 23.1 3 Nordeste 9 Este 0 -- -- 37
2017-09-24 11:00:00 19.9 3 Nordeste 6 Nordeste 0 -- -- 48
2017-09-24 10:00:00 14.6 0 Calma 6 Noroeste 0 -- -- 65
2017-09-24 09:00:00 10.1 0 Calma 6 Noroeste 0 -- -- 80
2017-09-24 08:00:00 7.7 0 Calma 9 Noroeste 0 -- -- 83
2017-09-24 07:00:00 8.2 0 Calma 7 Noroeste 0 -- -- 80
2017-09-24 06:00:00 8.2 4 Noroeste 6 Oeste 0 -- -- 79
2017-09-24 05:00:00 9 3 Oeste 8 Oeste 0 -- -- 79
2017-09-24 04:00:00 9 5 Noroeste 6 Noroeste 0 -- -- 78
2017-09-24 03:00:00 9.5 0 Calma 6 Oeste 0 -- -- 75
2017-09-24 02:00:00 9.7 2 Nordeste 7 Oeste 0 -- -- 70
2017-09-24 01:00:00 10.4 3 Noroeste 4 Noroeste 0 -- -- 69
2017-09-24 00:00:00 11.8 3 Noroeste 7 Noroeste 0 -- -- 62
2017-09-23 23:00:00 13 0 Calma 5 Oeste 0 -- -- 58
2017-09-23 22:00:00 15.4 0 Calma 5 Oeste 0 -- -- 49
2017-09-23 21:00:00 17.1 0 Calma 8 Nordeste 0 -- -- 44
2017-09-23 20:00:00 21.9 3 Noroeste 12 Nordeste 0 -- -- 37
2017-09-23 19:00:00 23.2 9 Nordeste 15 Nordeste 0 -- -- 37
2017-09-23 18:00:00 23.1 9 Nordeste 18 Este 0 -- -- 37
2017-09-23 17:00:00 24.5 9 Nordeste 23 Nordeste 0 -- -- 37
2017-09-23 16:00:00 23.9 10 Nordeste 21 Nordeste 0 -- -- 37
2017-09-23 15:00:00 23.6 8 Norte 21 Nordeste 0 -- -- 38
2017-09-23 14:00:00 22.9 9 Nordeste 17 Nordeste 0 -- -- 40
2017-09-23 13:00:00 21.6 5 Nordeste 14 Nordeste 0 -- -- 44
2017-09-23 12:00:00 20.2 4 Norte 12 Norte 0 -- -- 48
2017-09-23 11:00:00 16.5 2 Noroeste 8 Oeste 0 -- -- 66
2017-09-23 10:00:00 11.7 3 Oeste 8 Oeste 0 -- -- 83
2017-09-23 09:00:00 8.8 4 Oeste 6 Oeste 0 -- -- 92
2017-09-23 08:00:00 7.8 0 Calma 8 Oeste 0 -- -- 92
2017-09-23 07:00:00 7.7 6 Oeste 9 Oeste 0 -- -- 93
2017-09-23 06:00:00 8 4 Oeste 8 Oeste 0 -- -- 90
2017-09-23 05:00:00 9.1 0 Calma 5 Oeste 0 -- -- 87
2017-09-23 04:00:00 9.7 0 Calma 6 Noroeste 0 -- -- 86
2017-09-23 03:00:00 9.9 0 Calma 7 Oeste 0 -- -- 86
2017-09-23 02:00:00 8.8 0 Calma 5 Nordeste 0 -- -- 88
2017-09-23 01:00:00 9.5 0 Calma 5 Oeste 0 -- -- 88
2017-09-23 00:00:00 9.8 4 Oeste 9 Noroeste 0 -- -- 88